Time;durP1;ratioP1;P1;durP2;ratioP2;P2;SDS_P1;SDS_P2;PMS_P1;PMS_P2;Temp;Humidity;BMP_temperature;BMP_pressure;BME280_temperature;BME280_humidity;BME280_pressure;Samples;Min_cycle;Max_cycle;Signal;HPM_P1;HPM_P2
2021/08/27 00:00:55;;;;;;;4.90;1.35;;;16.80;89.50;;;;;;5098542;28;20203;-83
2021/08/27 00:03:21;;;;;;;3.95;1.52;;;16.80;89.60;;;;;;5098948;28;20029;-83
2021/08/27 00:05:46;;;;;;;2.85;1.10;;;16.80;89.60;;;;;;5098821;28;20043;-83
2021/08/27 00:08:12;;;;;;;2.50;1.33;;;16.80;89.80;;;;;;5098286;28;20392;-83
2021/08/27 00:10:38;;;;;;;6.38;1.65;;;16.80;89.80;;;;;;5098633;28;20073;-80
2021/08/27 00:13:03;;;;;;;4.38;1.63;;;16.70;90.00;;;;;;5097736;28;20387;-80
2021/08/27 00:15:29;;;;;;;3.38;1.35;;;16.70;90.20;;;;;;5097677;28;20056;-79
2021/08/27 00:17:55;;;;;;;5.00;1.58;;;16.70;90.30;;;;;;5115892;28;20372;-79
2021/08/27 00:20:20;;;;;;;5.38;1.30;;;16.70;90.30;;;;;;5098423;28;20479;-79
2021/08/27 00:22:46;;;;;;;4.63;1.75;;;16.80;90.20;;;;;;5116177;28;20102;-79
2021/08/27 00:25:12;;;;;;;2.50;1.30;;;16.80;90.00;;;;;;5097845;28;20027;-79
2021/08/27 00:27:37;;;;;;;5.78;1.63;;;16.70;90.20;;;;;;5098238;28;20535;-80
2021/08/27 00:30:03;;;;;;;3.17;1.20;;;16.70;90.10;;;;;;5097852;28;20035;-80
2021/08/27 00:32:30;;;;;;;2.92;1.20;;;16.70;90.20;;;;;;5098042;28;20062;-79
2021/08/27 00:34:56;;;;;;;4.03;1.60;;;16.70;90.20;;;;;;5097384;28;20030;-79
2021/08/27 00:37:21;;;;;;;4.90;1.40;;;16.70;90.40;;;;;;5097881;28;20027;-80
2021/08/27 00:39:47;;;;;;;2.63;1.10;;;16.70;90.60;;;;;;5097982;28;20030;-80
2021/08/27 00:42:13;;;;;;;4.22;1.00;;;16.70;90.70;;;;;;5097457;28;20459;-81
2021/08/27 00:44:38;;;;;;;3.17;1.15;;;16.70;90.60;;;;;;5098081;28;20023;-81
2021/08/27 00:47:04;;;;;;;2.45;0.90;;;16.70;90.40;;;;;;5097421;28;20502;-81
2021/08/27 00:49:31;;;;;;;2.10;1.20;;;16.70;90.40;;;;;;5097912;28;20074;-81
2021/08/27 00:51:57;;;;;;;3.35;1.27;;;16.70;90.40;;;;;;5097331;28;20024;-81
2021/08/27 00:54:23;;;;;;;3.33;1.25;;;16.70;90.50;;;;;;5097749;28;20031;-81
2021/08/27 00:56:52;;;;;;;4.18;1.27;;;16.70;90.40;;;;;;5097958;28;20025;-81
2021/08/27 00:59:18;;;;;;;4.13;1.30;;;16.70;90.50;;;;;;5097014;28;20019;-81
2021/08/27 01:01:44;;;;;;;3.10;1.30;;;16.70;90.30;;;;;;5096953;28;20031;-81
2021/08/27 01:04:10;;;;;;;3.83;1.42;;;16.60;90.40;;;;;;5097153;28;20023;-81
2021/08/27 01:06:45;;;;;;;2.63;1.20;;;16.60;90.60;;;;;;5097339;28;20031;-81
2021/08/27 01:09:23;;;;;;;3.15;1.30;;;16.60;90.60;;;;;;5097232;28;20376;-81
2021/08/27 01:12:15;;;;;;;2.28;1.20;;;16.60;90.70;;;;;;5097540;28;20020;-81
2021/08/27 01:14:47;;;;;;;3.00;1.20;;;16.60;90.60;;;;;;5086815;28;20095;-81
2021/08/27 01:17:28;;;;;;;4.57;1.58;;;16.60;90.40;;;;;;5114885;28;20472;-81
2021/08/27 01:19:54;;;;;;;4.68;1.45;;;16.60;90.40;;;;;;5097336;28;20023;-81
2021/08/27 01:23:01;;;;;;;3.85;1.17;;;16.60;90.60;;;;;;5114690;28;20518;-82
2021/08/27 01:25:30;;;;;;;3.88;1.40;;;16.60;90.40;;;;;;5096768;28;20031;-81
2021/08/27 01:27:57;;;;;;;3.20;1.50;;;16.60;90.20;;;;;;5115057;28;20032;-81
2021/08/27 01:31:14;;;;;;;3.60;1.13;;;16.60;90.10;;;;;;5097243;28;20024;-81
2021/08/27 01:34:11;;;;;;;2.20;1.23;;;16.60;90.30;;;;;;5054728;28;20515;-81
2021/08/27 01:36:38;;;;;;;3.97;1.20;;;16.50;90.40;;;;;;5077157;28;20059;-81
2021/08/27 01:39:06;;;;;;;4.30;1.50;;;16.50;90.40;;;;;;5096329;28;20047;-81
2021/08/27 01:41:34;;;;;;;2.67;1.30;;;16.50;90.50;;;;;;5114872;28;20054;-81
2021/08/27 01:44:05;;;;;;;4.57;1.20;;;16.60;90.50;;;;;;5096407;28;20095;-80
2021/08/27 01:46:33;;;;;;;1.65;1.27;;;16.60;90.50;;;;;;5096456;28;20059;-80
2021/08/27 01:49:00;;;;;;;4.13;1.30;;;16.60;90.60;;;;;;5114370;28;20035;-80
2021/08/27 01:51:28;;;;;;;2.85;1.08;;;16.60;90.60;;;;;;5097150;28;20028;-81
2021/08/27 01:53:55;;;;;;;3.45;1.25;;;16.60;90.70;;;;;;5096632;28;20031;-81
2021/08/27 01:56:21;;;;;;;2.85;1.30;;;16.60;90.90;;;;;;5096015;28;20034;-81
2021/08/27 01:58:47;;;;;;;1.70;1.13;;;16.60;91.00;;;;;;5096489;28;20023;-81
2021/08/27 02:01:13;;;;;;;2.83;1.13;;;16.60;91.30;;;;;;5113730;28;20457;-81
2021/08/27 02:03:39;;;;;;;2.10;1.27;;;16.60;91.50;;;;;;5096590;28;20061;-81
2021/08/27 02:06:08;;;;;;;6.13;1.40;;;16.60;91.90;;;;;;5095744;28;20063;-80
2021/08/27 02:08:35;;;;;;;3.22;1.38;;;16.60;91.90;;;;;;5114469;28;20093;-80
2021/08/27 02:11:01;;;;;;;3.10;1.20;;;16.60;92.40;;;;;;5095760;28;20118;-80
2021/08/27 02:13:28;;;;;;;4.45;1.42;;;16.50;92.80;;;;;;5096538;28;20032;-81
2021/08/27 02:15:54;;;;;;;2.92;1.60;;;16.40;92.60;;;;;;5113919;28;20073;-81
2021/08/27 02:18:20;;;;;;;3.22;1.30;;;16.40;92.90;;;;;;5095922;28;20357;-81
2021/08/27 02:20:45;;;;;;;2.38;1.10;;;16.40;92.60;;;;;;5114246;28;20034;-80
2021/08/27 02:23:13;;;;;;;2.72;1.35;;;16.30;92.90;;;;;;5113727;28;20027;-80
2021/08/27 02:25:42;;;;;;;1.90;1.00;;;16.30;93.00;;;;;;5091305;28;20540;-81
2021/08/27 02:28:08;;;;;;;1.92;1.10;;;16.20;92.90;;;;;;5093312;28;20512;-79
2021/08/27 02:30:35;;;;;;;1.73;1.10;;;16.10;93.20;;;;;;5093909;28;20024;-80
2021/08/27 02:33:07;;;;;;;2.35;1.25;;;16.20;93.90;;;;;;5078496;28;20481;-81
2021/08/27 02:35:33;;;;;;;;;;;16.20;94.40;;;;;;5096889;28;20024;-80
2021/08/27 02:38:00;;;;;;;5.55;1.20;;;16.20;94.60;;;;;;5096150;28;20253;-79
2021/08/27 02:40:26;;;;;;;1.98;1.02;;;16.20;94.10;;;;;;5113628;28;20048;-80
2021/08/27 02:42:51;;;;;;;1.52;1.10;;;16.20;94.10;;;;;;5114095;28;20024;-80
2021/08/27 02:45:17;;;;;;;1.77;1.05;;;16.20;94.40;;;;;;5095493;28;20494;-80
2021/08/27 02:47:43;;;;;;;3.03;1.38;;;16.20;94.50;;;;;;5095845;28;20040;-80
2021/08/27 02:50:12;;;;;;;2.78;1.35;;;16.20;94.80;;;;;;5095445;28;20068;-80
2021/08/27 02:52:42;;;;;;;3.42;1.40;;;16.20;95.10;;;;;;5095990;28;20066;-80
2021/08/27 02:55:22;;;;;;;2.35;1.10;;;16.20;95.10;;;;;;5095633;28;20120;-80
2021/08/27 02:57:54;;;;;;;5.90;1.27;;;16.20;95.20;;;;;;5096132;28;20118;-81
2021/08/27 03:00:20;;;;;;;2.15;1.10;;;16.20;94.50;;;;;;5095472;28;20024;-80
2021/08/27 03:02:47;;;;;;;2.95;1.10;;;16.10;94.50;;;;;;5095884;28;20085;-80
2021/08/27 03:05:18;;;;;;;4.85;1.10;;;16.10;95.00;;;;;;5113250;28;20495;-80
2021/08/27 03:07:49;;;;;;;6.43;1.48;;;16.00;94.70;;;;;;5113887;28;20468;-80
2021/08/27 03:10:27;;;;;;;3.30;1.10;;;16.00;95.00;;;;;;5095374;28;20481;-81
2021/08/27 03:13:02;;;;;;;1.88;1.10;;;16.00;94.60;;;;;;5096137;28;20024;-81
2021/08/27 03:15:36;;;;;;;1.92;1.10;;;15.90;94.80;;;;;;5095134;28;20069;-81
2021/08/27 03:18:08;;;;;;;4.28;1.45;;;16.00;94.60;;;;;;5095806;28;20024;-81
2021/08/27 03:20:50;;;;;;;3.20;1.05;;;16.00;94.70;;;;;;5113805;28;20024;-81
2021/08/27 03:23:18;;;;;;;3.90;1.48;;;16.00;94.80;;;;;;5096018;28;20027;-81
2021/08/27 03:25:46;;;;;;;2.97;1.23;;;16.00;94.60;;;;;;5099610;28;20043;-81
2021/08/27 03:28:26;;;;;;;2.85;1.02;;;16.00;94.60;;;;;;5116978;28;20491;-81
2021/08/27 03:30:54;;;;;;;2.47;1.13;;;15.90;94.70;;;;;;5099514;28;20476;-82
2021/08/27 03:33:22;;;;;;;1.88;1.00;;;16.00;94.60;;;;;;5098878;28;20114;-81
2021/08/27 03:35:49;;;;;;;4.75;0.93;;;16.00;94.50;;;;;;5117535;28;20024;-82
2021/08/27 03:38:15;;;;;;;4.35;1.10;;;16.00;94.40;;;;;;5116688;28;20031;-81
2021/08/27 03:40:42;;;;;;;4.10;1.30;;;16.00;94.40;;;;;;5098929;28;20027;-82
2021/08/27 03:43:09;;;;;;;4.20;1.10;;;16.00;94.50;;;;;;5098782;28;20031;-81
2021/08/27 03:45:36;;;;;;;7.93;1.73;;;16.00;94.60;;;;;;5098791;28;20039;-82
2021/08/27 03:48:02;;;;;;;3.53;1.27;;;15.80;94.80;;;;;;5098951;28;20042;-81
2021/08/27 03:50:28;;;;;;;2.80;1.17;;;15.90;95.00;;;;;;5098372;28;20523;-81
2021/08/27 03:52:54;;;;;;;2.60;1.40;;;15.80;95.20;;;;;;5116872;28;20102;-81
2021/08/27 03:55:21;;;;;;;3.78;1.33;;;15.80;95.40;;;;;;5098736;28;20024;-81
2021/08/27 03:57:48;;;;;;;6.30;1.38;;;15.80;95.80;;;;;;5098910;28;20456;-81
2021/08/27 04:00:17;;;;;;;4.40;1.55;;;15.80;95.80;;;;;;5098390;28;20028;-80
2021/08/27 04:02:44;;;;;;;3.28;1.30;;;15.80;95.80;;;;;;5116665;28;20028;-81
2021/08/27 04:05:15;;;;;;;3.70;1.50;;;15.90;95.80;;;;;;5098139;28;20024;-81
2021/08/27 04:07:42;;;;;;;4.60;1.88;;;15.90;95.50;;;;;;5116465;28;20089;-81
2021/08/27 04:10:09;;;;;;;5.25;1.80;;;15.80;95.40;;;;;;5098143;28;20035;-80
2021/08/27 04:12:37;;;;;;;3.20;1.55;;;15.80;95.80;;;;;;5098546;28;20023;-82
2021/08/27 04:15:04;;;;;;;4.30;1.63;;;15.80;95.80;;;;;;5098422;28;20145;-82
2021/08/27 04:17:29;;;;;;;5.30;1.55;;;15.80;95.90;;;;;;5116115;28;20028;-82
2021/08/27 04:19:56;;;;;;;10.48;2.25;;;15.80;95.90;;;;;;5098319;28;20034;-82
2021/08/27 04:22:21;;;;;;;5.30;1.55;;;15.80;95.90;;;;;;5097971;28;20110;-82
2021/08/27 04:24:47;;;;;;;4.25;1.42;;;15.70;95.60;;;;;;5098322;28;20066;-83
2021/08/27 04:27:12;;;;;;;3.95;1.63;;;15.70;95.60;;;;;;5115694;28;20071;-82
2021/08/27 04:29:38;;;;;;;3.47;1.67;;;15.60;95.30;;;;;;5098432;28;20472;-83
2021/08/27 04:32:04;;;;;;;3.78;1.45;;;15.60;95.40;;;;;;5098158;28;20028;-83
2021/08/27 04:34:30;;;;;;;5.00;1.48;;;15.60;96.00;;;;;;5097820;28;20115;-83
2021/08/27 04:36:55;;;;;;;1.92;1.50;;;15.60;96.20;;;;;;5098253;28;20059;-83
2021/08/27 04:39:22;;;;;;;5.90;1.67;;;15.60;96.20;;;;;;5097771;28;20028;-83
2021/08/27 04:41:48;;;;;;;6.35;3.40;;;15.50;95.90;;;;;;5098092;28;20058;-83
2021/08/27 04:44:13;;;;;;;7.93;4.03;;;15.50;95.70;;;;;;5097602;28;20380;-82
2021/08/27 04:46:39;;;;;;;9.40;5.82;;;15.50;95.60;;;;;;5115573;28;20047;-83
2021/08/27 04:49:04;;;;;;;6.32;3.53;;;15.40;95.70;;;;;;5098015;28;20122;-83
2021/08/27 04:51:30;;;;;;;3.40;2.15;;;15.40;95.60;;;;;;5097285;28;20027;-83
2021/08/27 04:53:56;;;;;;;2.75;1.30;;;15.40;95.60;;;;;;5097799;28;20020;-83
2021/08/27 04:56:21;;;;;;;3.17;1.60;;;15.40;95.50;;;;;;5097492;28;20038;-83
2021/08/27 04:58:47;;;;;;;4.63;1.52;;;15.40;95.50;;;;;;5097872;28;20063;-83
2021/08/27 05:01:12;;;;;;;2.95;1.63;;;15.40;95.70;;;;;;5083890;28;20031;-82
2021/08/27 05:03:38;;;;;;;3.22;1.38;;;15.50;95.40;;;;;;5095343;28;20024;-83
2021/08/27 05:06:04;;;;;;;5.25;1.75;;;15.50;95.30;;;;;;5077453;28;20032;-83
2021/08/27 05:08:30;;;;;;;5.00;1.80;;;15.50;95.20;;;;;;5079123;28;20473;-83
2021/08/27 05:10:56;;;;;;;3.50;1.40;;;15.50;95.70;;;;;;5092337;28;20032;-83
2021/08/27 05:13:21;;;;;;;1.80;1.40;;;15.60;95.60;;;;;;5097124;28;20463;-81
2021/08/27 05:15:47;;;;;;;5.43;1.90;;;15.60;95.10;;;;;;5083749;28;20488;-81
2021/08/27 05:18:13;;;;;;;4.22;1.65;;;15.60;95.10;;;;;;5095092;28;20441;-80
2021/08/27 05:20:39;;;;;;;4.47;1.50;;;15.60;94.80;;;;;;5076888;28;20024;-81
2021/08/27 05:23:05;;;;;;;2.80;1.80;;;15.60;94.70;;;;;;5093931;28;20023;-81
2021/08/27 05:25:30;;;;;;;3.40;1.63;;;15.60;94.90;;;;;;5096559;28;20058;-81
2021/08/27 05:27:56;;;;;;;6.68;2.00;;;15.60;95.50;;;;;;5097211;28;20034;-82
2021/08/27 05:30:23;;;;;;;4.47;1.85;;;15.60;95.00;;;;;;5109855;28;20031;-81
2021/08/27 05:32:49;;;;;;;4.20;1.88;;;15.60;95.00;;;;;;5076852;28;20051;-81
2021/08/27 05:35:15;;;;;;;3.83;1.63;;;15.60;96.00;;;;;;5076427;28;20024;-80
2021/08/27 05:37:41;;;;;;;7.78;1.98;;;15.50;95.60;;;;;;5111318;28;20038;-81
2021/08/27 05:40:08;;;;;;;4.35;1.80;;;15.50;95.40;;;;;;5087857;28;20024;-83
2021/08/27 05:42:35;;;;;;;3.35;1.88;;;15.50;95.30;;;;;;5076648;28;20173;-83
2021/08/27 05:45:01;;;;;;;4.60;1.65;;;15.40;95.50;;;;;;5094611;28;20405;-82
2021/08/27 05:47:26;;;;;;;3.40;1.65;;;15.40;95.80;;;;;;5075622;28;20120;-81
2021/08/27 05:49:52;;;;;;;1.90;1.70;;;15.50;95.60;;;;;;5079499;28;20024;-81
2021/08/27 05:52:18;;;;;;;3.35;1.70;;;15.40;95.30;;;;;;5076116;28;20361;-81
2021/08/27 05:54:43;;;;;;;4.15;1.70;;;15.40;95.80;;;;;;5077118;28;20066;-81
2021/08/27 05:57:09;;;;;;;5.93;1.95;;;15.40;95.90;;;;;;5076742;28;20031;-81
2021/08/27 05:59:34;;;;;;;4.18;1.70;;;15.30;95.40;;;;;;5097736;28;20110;-82
2021/08/27 06:02:00;;;;;;;4.00;1.60;;;15.40;95.70;;;;;;5106914;28;20028;-81
2021/08/27 06:04:25;;;;;;;6.18;2.13;;;15.40;95.80;;;;;;5081691;28;20468;-81
2021/08/27 06:06:53;;;;;;;4.03;1.98;;;15.40;95.20;;;;;;5091897;28;20086;-81
2021/08/27 06:09:19;;;;;;;4.15;2.13;;;15.40;95.00;;;;;;5096088;28;20379;-81
2021/08/27 06:11:45;;;;;;;3.25;2.10;;;15.40;94.70;;;;;;5094701;28;20024;-81
2021/08/27 06:14:11;;;;;;;3.80;2.08;;;15.40;94.70;;;;;;5080037;28;20024;-82
2021/08/27 06:16:37;;;;;;;6.43;2.00;;;15.40;95.00;;;;;;5095442;28;20197;-82
2021/08/27 06:19:04;;;;;;;5.57;1.85;;;15.40;94.60;;;;;;5096563;28;20353;-82
2021/08/27 06:21:33;;;;;;;5.03;2.15;;;15.40;94.40;;;;;;5095968;28;20028;-82
2021/08/27 06:23:59;;;;;;;5.85;2.00;;;15.40;94.30;;;;;;5096342;28;20053;-82
2021/08/27 06:26:24;;;;;;;3.75;1.95;;;15.40;94.10;;;;;;5095293;28;20038;-81
2021/08/27 06:28:50;;;;;;;6.40;2.13;;;15.40;93.90;;;;;;5084794;28;20115;-81
2021/08/27 06:31:16;;;;;;;4.80;2.30;;;15.40;94.00;;;;;;5075562;28;20027;-81
2021/08/27 06:33:42;;;;;;;3.95;2.10;;;15.40;94.00;;;;;;5075483;28;20111;-82
2021/08/27 06:36:08;;;;;;;2.17;1.90;;;15.40;94.10;;;;;;5093662;28;20024;-82
2021/08/27 06:38:34;;;;;;;6.53;1.98;;;15.40;94.20;;;;;;5074976;28;20031;-82
2021/08/27 06:41:05;;;;;;;4.32;2.20;;;15.40;94.30;;;;;;5075707;28;20028;-81
2021/08/27 06:43:34;;;;;;;6.57;1.90;;;15.40;94.10;;;;;;5075457;28;20025;-82
2021/08/27 06:46:03;;;;;;;5.25;1.90;;;15.50;94.10;;;;;;5090071;28;20296;-82
2021/08/27 06:48:29;;;;;;;5.00;2.13;;;15.60;94.40;;;;;;5075365;28;20039;-83
2021/08/27 06:50:56;;;;;;;4.60;1.95;;;15.60;94.10;;;;;;5075336;28;20016;-82
2021/08/27 06:53:22;;;;;;;2.72;1.70;;;15.60;93.30;;;;;;5075415;28;20028;-81
2021/08/27 06:55:48;;;;;;;3.97;1.60;;;15.60;93.20;;;;;;5075523;28;20024;-82
2021/08/27 06:58:13;;;;;;;3.22;1.73;;;15.60;93.20;;;;;;5075429;28;20460;-81
2021/08/27 07:00:39;;;;;;;5.45;2.58;;;15.60;93.10;;;;;;5096542;28;20031;-82
2021/08/27 07:03:05;;;;;;;5.68;2.50;;;15.60;92.80;;;;;;5079357;28;20472;-82
2021/08/27 07:05:31;;;;;;;4.00;1.58;;;15.60;92.80;;;;;;5078672;28;20082;-83
2021/08/27 07:07:58;;;;;;;2.17;1.30;;;15.60;92.00;;;;;;5097001;28;20028;-83
2021/08/27 07:10:24;;;;;;;2.47;1.33;;;15.60;91.90;;;;;;5078730;28;20048;-83
2021/08/27 07:12:51;;;;;;;3.13;1.50;;;15.60;92.20;;;;;;5082733;28;20479;-83
2021/08/27 07:15:19;;;;;;;5.45;1.67;;;15.60;92.00;;;;;;5110544;28;20051;-82
2021/08/27 07:17:46;;;;;;;4.07;1.33;;;15.70;92.00;;;;;;5106402;28;20034;-83
2021/08/27 07:20:13;;;;;;;4.50;1.60;;;15.70;91.80;;;;;;5108090;28;20030;-82
2021/08/27 07:22:40;;;;;;;3.03;1.45;;;15.70;91.80;;;;;;5097332;28;20042;-82
2021/08/27 07:25:06;;;;;;;3.50;1.70;;;15.80;92.10;;;;;;5100910;28;20085;-81
2021/08/27 07:27:32;;;;;;;3.10;1.33;;;15.70;91.80;;;;;;5104991;28;20034;-82
2021/08/27 07:29:58;;;;;;;4.53;1.60;;;15.80;91.60;;;;;;5098260;28;20024;-82
2021/08/27 07:32:24;;;;;;;5.28;1.33;;;15.80;91.70;;;;;;5098793;28;20031;-82
2021/08/27 07:34:50;;;;;;;5.53;1.63;;;15.90;91.80;;;;;;5099308;28;20452;-82
2021/08/27 07:37:16;;;;;;;4.72;2.28;;;16.00;91.60;;;;;;5082750;28;20122;-82
2021/08/27 07:39:42;;;;;;;7.47;2.30;;;16.10;91.20;;;;;;5083161;28;20062;-82
2021/08/27 07:42:08;;;;;;;3.08;1.67;;;16.10;91.40;;;;;;5085047;28;20068;-82
2021/08/27 07:44:34;;;;;;;4.88;2.00;;;16.10;91.50;;;;;;5092995;28;20059;-82
2021/08/27 07:47:01;;;;;;;6.05;1.55;;;16.10;91.40;;;;;;5086023;28;20500;-82
2021/08/27 07:49:26;;;;;;;4.88;1.67;;;16.10;91.10;;;;;;5102219;28;20038;-82
2021/08/27 07:51:53;;;;;;;3.83;1.58;;;16.10;90.80;;;;;;5115728;28;20031;-82
2021/08/27 07:54:19;;;;;;;4.38;1.60;;;16.10;90.80;;;;;;5101648;28;20035;-80
2021/08/27 07:56:45;;;;;;;2.97;1.58;;;16.10;90.80;;;;;;5091919;28;20082;-82
2021/08/27 07:59:11;;;;;;;2.47;1.30;;;16.10;90.70;;;;;;5108567;28;20480;-81
2021/08/27 08:01:37;;;;;;;4.43;1.23;;;16.10;90.60;;;;;;5088670;28;20024;-82
2021/08/27 08:04:03;;;;;;;7.45;1.70;;;16.20;90.50;;;;;;5085900;28;20483;-83
2021/08/27 08:06:29;;;;;;;6.15;1.50;;;16.20;90.50;;;;;;5105576;28;20034;-83
2021/08/27 08:08:55;;;;;;;6.55;2.08;;;16.20;90.60;;;;;;5085551;28;20027;-81
2021/08/27 08:11:20;;;;;;;3.33;1.33;;;16.20;90.80;;;;;;5087536;28;20046;-83
2021/08/27 08:13:46;;;;;;;2.70;1.60;;;16.20;90.40;;;;;;5109016;28;20042;-83
2021/08/27 08:16:12;;;;;;;3.88;1.50;;;16.20;90.10;;;;;;5110126;28;20108;-82
2021/08/27 08:18:39;;;;;;;4.57;1.70;;;16.20;90.30;;;;;;5089635;28;20019;-84
2021/08/27 08:21:05;;;;;;;4.20;1.60;;;16.20;90.40;;;;;;5090531;28;20028;-84
2021/08/27 08:23:31;;;;;;;4.65;1.48;;;16.20;90.70;;;;;;5089989;28;20058;-83
2021/08/27 08:25:57;;;;;;;4.93;1.95;;;16.20;90.70;;;;;;5086446;28;20075;-82
2021/08/27 08:28:23;;;;;;;4.18;1.63;;;16.20;90.70;;;;;;5090480;28;20030;-82
2021/08/27 08:30:49;;;;;;;5.03;1.58;;;16.30;90.20;;;;;;5088374;28;20106;-82
2021/08/27 08:33:15;;;;;;;4.68;1.33;;;16.30;90.00;;;;;;5089678;28;20024;-83
2021/08/27 08:35:41;;;;;;;2.85;1.42;;;16.30;90.10;;;;;;5106316;28;20039;-82
2021/08/27 08:38:06;;;;;;;4.03;1.35;;;16.30;90.00;;;;;;5073209;28;20484;-81
2021/08/27 08:40:44;;;;;;;3.58;1.42;;;16.30;89.20;;;;;;5092986;28;20034;-83
2021/08/27 08:43:11;;;;;;;2.60;1.25;;;16.30;88.40;;;;;;5087529;28;20110;-85
2021/08/27 08:45:47;;;;;;;4.38;1.52;;;16.40;89.20;;;;;;5085760;28;20031;-84
2021/08/27 08:48:17;;;;;;;2.88;1.13;;;16.40;89.20;;;;;;5097446;28;20125;-84
2021/08/27 08:50:44;;;;;;;4.65;1.35;;;16.40;89.00;;;;;;5084905;28;20611;-82
2021/08/27 08:53:11;;;;;;;3.55;1.30;;;16.40;88.00;;;;;;5100414;28;20436;-81
2021/08/27 08:55:38;;;;;;;2.58;0.90;;;16.40;87.80;;;;;;5087652;28;20077;-84
2021/08/27 08:58:04;;;;;;;3.35;1.17;;;16.40;87.50;;;;;;5087592;28;20024;-86
2021/08/27 09:00:29;;;;;;;5.18;0.98;;;16.40;87.50;;;;;;5093017;28;20020;-86
2021/08/27 09:02:55;;;;;;;4.32;1.30;;;16.60;87.30;;;;;;5108150;28;20034;-84
2021/08/27 09:05:21;;;;;;;2.80;1.10;;;16.90;86.80;;;;;;5085882;28;20035;-86
2021/08/27 09:07:46;;;;;;;2.97;1.27;;;17.00;85.40;;;;;;5098629;28;20035;-87
2021/08/27 09:10:20;;;;;;;2.88;1.02;;;17.20;85.00;;;;;;5088403;28;20035;-85
2021/08/27 09:12:46;;;;;;;3.13;1.27;;;17.40;84.60;;;;;;5104466;28;20019;-86
2021/08/27 09:15:13;;;;;;;3.25;1.65;;;17.50;84.50;;;;;;5084200;28;20024;-86
2021/08/27 09:17:46;;;;;;;2.33;1.13;;;17.70;83.90;;;;;;5080492;28;20070;-86
2021/08/27 09:20:17;;;;;;;2.95;0.93;;;17.70;82.80;;;;;;5086266;28;20039;-88
2021/08/27 09:22:48;;;;;;;3.60;1.00;;;17.60;82.60;;;;;;5074918;28;20032;-87
2021/08/27 09:25:16;;;;;;;3.45;1.23;;;17.50;83.00;;;;;;5094185;28;20039;-86
2021/08/27 09:28:08;;;;;;;5.25;1.77;;;17.40;82.90;;;;;;5095771;28;20070;-87
2021/08/27 09:30:37;;;;;;;2.20;0.98;;;17.20;81.50;;;;;;5090641;28;20019;-87
2021/08/27 09:33:16;;;;;;;5.90;1.15;;;17.10;82.90;;;;;;5095783;28;20016;-86
2021/08/27 09:36:05;;;;;;;3.53;0.98;;;17.10;82.80;;;;;;5095677;28;20093;-85
2021/08/27 09:38:39;;;;;;;5.22;1.38;;;17.10;83.80;;;;;;5093099;28;20055;-85
2021/08/27 09:41:05;;;;;;;3.90;1.15;;;17.10;85.50;;;;;;5075799;28;20024;-87
2021/08/27 09:43:45;;;;;;;2.88;1.10;;;17.10;85.10;;;;;;5075522;28;20377;-87
2021/08/27 09:46:46;;;;;;;2.63;0.90;;;17.10;85.20;;;;;;5083890;28;20040;-88
2021/08/27 09:49:36;;;;;;;3.23;1.57;;;17.30;85.60;;;;;;4980229;28;20030;-86
2021/08/27 09:52:09;;;;;;;12.02;4.57;;;17.40;86.10;;;;;;5084505;28;21587;-87
2021/08/27 09:54:43;;;;;;;3.78;1.65;;;17.50;85.90;;;;;;5104639;28;20469;-87
2021/08/27 09:57:12;;;;;;;2.67;1.08;;;17.50;86.20;;;;;;5075780;28;20054;-86
2021/08/27 09:59:39;;;;;;;2.35;1.10;;;17.50;86.80;;;;;;5081847;28;20031;-87
2021/08/27 10:02:10;;;;;;;2.20;1.25;;;17.50;85.80;;;;;;5094657;28;20127;-86
2021/08/27 10:04:57;;;;;;;2.88;1.13;;;17.60;85.50;;;;;;5093979;28;20456;-84
2021/08/27 10:07:37;;;;;;;3.30;1.20;;;17.70;85.80;;;;;;5075185;28;20064;-85
2021/08/27 10:10:09;;;;;;;2.90;1.25;;;17.80;84.00;;;;;;5083744;28;20072;-84
2021/08/27 10:12:37;;;;;;;4.03;1.40;;;18.00;83.70;;;;;;5084754;28;20115;-84
2021/08/27 10:15:07;;;;;;;4.32;1.20;;;18.10;82.90;;;;;;5098086;28;20028;-85
2021/08/27 10:17:35;;;;;;;7.13;2.10;;;18.30;81.70;;;;;;5075246;28;20431;-86
2021/08/27 10:20:07;;;;;;;3.05;1.50;;;18.40;81.50;;;;;;5076024;28;20495;-85
2021/08/27 10:22:36;;;;;;;5.10;1.02;;;18.40;80.50;;;;;;5075133;28;20024;-84
2021/08/27 10:25:08;;;;;;;3.35;1.17;;;18.40;81.90;;;;;;5079141;28;20039;-85
2021/08/27 10:27:35;;;;;;;1.75;0.88;;;18.40;82.60;;;;;;5094759;28;20036;-85
2021/08/27 10:30:01;;;;;;;2.30;1.05;;;18.30;81.00;;;;;;5095657;28;20024;-85
2021/08/27 10:32:38;;;;;;;2.50;0.90;;;18.30;81.40;;;;;;5096308;28;20492;-88
2021/08/27 10:35:24;;;;;;;5.25;1.20;;;18.20;80.00;;;;;;5099799;28;20023;-85
2021/08/27 10:37:51;;;;;;;5.10;1.23;;;18.10;79.90;;;;;;5082228;28;20145;-85
2021/08/27 10:40:39;;;;;;;2.88;1.00;;;18.10;80.40;;;;;;5098124;28;20392;-87
2021/08/27 10:43:05;;;;;;;3.83;1.13;;;18.10;80.40;;;;;;5079335;28;20128;-85
2021/08/27 10:45:43;;;;;;;2.83;0.90;;;18.00;80.00;;;;;;5096396;28;20058;-86
2021/08/27 10:48:12;;;;;;;1.90;1.10;;;18.00;80.10;;;;;;5100274;28;20035;-86
2021/08/27 10:50:49;;;;;;;2.80;1.30;;;18.00;79.90;;;;;;5099422;28;20035;-85
2021/08/27 10:53:31;;;;;;;3.72;1.40;;;17.90;80.10;;;;;;5103238;28;20525;-86
2021/08/27 10:56:03;;;;;;;2.70;1.40;;;17.90;80.30;;;;;;5099043;28;20034;-86
2021/08/27 10:58:46;;;;;;;1.77;1.10;;;17.90;81.00;;;;;;5094048;28;20081;-88
2021/08/27 11:01:32;;;;;;;3.53;1.20;;;17.80;80.50;;;;;;5089156;28;20036;-85
2021/08/27 11:04:10;;;;;;;2.50;1.08;;;17.80;81.30;;;;;;5108768;28;20479;-86
2021/08/27 11:06:58;;;;;;;2.70;1.27;;;17.80;81.90;;;;;;5079114;28;20085;-86
2021/08/27 11:09:26;;;;;;;2.22;0.98;;;17.80;82.50;;;;;;5081111;28;20106;-85
2021/08/27 11:12:07;;;;;;;3.17;1.13;;;17.80;82.90;;;;;;5091698;28;20042;-85
2021/08/27 11:14:34;;;;;;;1.42;1.00;;;17.80;82.90;;;;;;5097263;28;20114;-86
2021/08/27 11:17:03;;;;;;;1.98;1.00;;;17.80;83.20;;;;;;5079278;28;20056;-85
2021/08/27 11:19:41;;;;;;;5.53;1.67;;;17.80;82.90;;;;;;5079783;28;20028;-87
2021/08/27 11:22:10;;;;;;;2.03;1.17;;;18.00;82.90;;;;;;5079487;28;20024;-86
2021/08/27 11:24:40;;;;;;;5.07;1.13;;;18.10;82.30;;;;;;5096538;28;20115;-84
2021/08/27 11:27:17;;;;;;;4.10;1.10;;;18.10;80.80;;;;;;5079912;28;20060;-85
2021/08/27 11:29:44;;;;;;;3.40;0.93;;;18.10;81.10;;;;;;5078601;28;20492;-87
2021/08/27 11:32:16;;;;;;;3.72;1.40;;;18.10;81.10;;;;;;5079472;28;20028;-86
2021/08/27 11:34:51;;;;;;;3.88;1.10;;;18.20;81.80;;;;;;5078648;28;20138;-86
2021/08/27 11:37:17;;;;;;;4.22;1.50;;;18.30;79.20;;;;;;5084507;28;20046;-87
2021/08/27 11:39:45;;;;;;;2.08;1.20;;;18.40;76.70;;;;;;5099229;28;20054;-86
2021/08/27 11:42:12;;;;;;;4.35;1.20;;;18.60;76.10;;;;;;5099068;28;20031;-86
2021/08/27 11:44:45;;;;;;;2.38;1.25;;;18.70;76.80;;;;;;5087808;28;20025;-86
2021/08/27 11:47:14;;;;;;;3.90;1.20;;;18.80;76.70;;;;;;5090886;28;20063;-87
2021/08/27 11:49:56;;;;;;;3.25;1.33;;;18.80;76.30;;;;;;5114478;28;20024;-85
2021/08/27 11:52:29;;;;;;;2.28;1.13;;;18.80;77.40;;;;;;5093388;28;20027;-86
2021/08/27 11:55:11;;;;;;;2.00;1.10;;;18.90;76.80;;;;;;5077983;28;20100;-85
2021/08/27 11:57:51;;;;;;;2.13;1.15;;;18.90;76.50;;;;;;5077905;28;20032;-85
2021/08/27 12:00:19;;;;;;;2.85;1.48;;;18.90;76.70;;;;;;5095700;28;20024;-85
2021/08/27 12:02:44;;;;;;;2.38;1.35;;;18.90;76.30;;;;;;5113253;28;20027;-85
2021/08/27 12:05:12;;;;;;;1.73;1.55;;;18.90;76.90;;;;;;5096202;28;20024;-85
2021/08/27 12:07:59;;;;;;;3.58;1.23;;;18.90;76.70;;;;;;5094214;28;20036;-86
2021/08/27 12:10:35;;;;;;;4.15;1.50;;;18.80;76.50;;;;;;5097191;28;20024;-85
2021/08/27 12:13:03;;;;;;;5.03;1.63;;;18.80;75.40;;;;;;5094122;28;20032;-85
2021/08/27 12:15:32;;;;;;;3.88;1.50;;;18.80;75.50;;;;;;5082930;28;20056;-86
2021/08/27 12:18:03;;;;;;;2.30;1.30;;;18.80;75.40;;;;;;5098045;28;20036;-85
2021/08/27 12:20:34;;;;;;;;;;;18.80;75.60;;;;;;5099067;28;20023;-85
2021/08/27 12:23:04;;;;;;;2.15;1.40;;;18.80;75.50;;;;;;5090466;28;20362;-85
2021/08/27 12:25:37;;;;;;;3.57;1.30;;;18.80;75.20;;;;;;5096265;28;20050;-85
2021/08/27 12:28:03;;;;;;;5.20;1.60;;;18.90;75.00;;;;;;5078119;28;20630;-85
2021/08/27 12:30:29;;;;;;;2.05;1.45;;;18.90;73.90;;;;;;5077553;28;20028;-85
2021/08/27 12:32:56;;;;;;;4.15;1.80;;;19.00;74.00;;;;;;5077124;28;20028;-85
2021/08/27 12:35:29;;;;;;;4.13;1.42;;;19.10;73.50;;;;;;5077457;28;20365;-85
2021/08/27 12:37:56;;;;;;;2.63;1.60;;;19.20;73.30;;;;;;5083945;28;20023;-84
2021/08/27 12:40:23;;;;;;;2.28;1.58;;;19.20;72.50;;;;;;5079858;28;20468;-84
2021/08/27 12:42:59;;;;;;;3.75;1.85;;;19.20;72.30;;;;;;5076772;28;20028;-83
2021/08/27 12:45:25;;;;;;;3.33;1.58;;;19.20;71.30;;;;;;5077221;28;20028;-88
2021/08/27 12:48:03;;;;;;;4.30;1.80;;;19.30;71.60;;;;;;5076549;28;20036;-87
2021/08/27 12:50:29;;;;;;;2.53;1.77;;;19.40;71.00;;;;;;5077402;28;20024;-86
2021/08/27 12:53:02;;;;;;;4.07;1.75;;;19.50;70.70;;;;;;5076724;28;20032;-89
2021/08/27 12:55:29;;;;;;;4.07;1.63;;;19.60;71.20;;;;;;5102995;28;20031;-87
2021/08/27 12:57:55;;;;;;;2.97;1.58;;;19.80;70.80;;;;;;5089956;28;20114;-87